Time;durP1;ratioP1;P1;durP2;ratioP2;P2;SDS_P1;SDS_P2;PMS_P1;PMS_P2;Temp;Humidity;BMP_temperature;BMP_pressure;BME280_temperature;BME280_humidity;BME280_pressure;Samples;Min_cycle;Max_cycle;Signal;HPM_P1;HPM_P2
2023/04/03 00:01:13;;;;;;;8.57;1.70;;;1.50;99.90;;;;;;2602812;54;20757;31
2023/04/03 00:03:48;;;;;;;5.93;1.50;;;1.50;99.90;;;;;;2603402;54;20878;31
2023/04/03 00:06:27;;;;;;;7.83;2.23;;;1.50;99.90;;;;;;2603684;54;20776;31
2023/04/03 00:09:03;;;;;;;5.15;1.70;;;1.50;99.90;;;;;;2603668;54;21052;31
2023/04/03 00:11:41;;;;;;;7.30;1.55;;;1.40;99.90;;;;;;2603711;54;20027;31
2023/04/03 00:14:16;;;;;;;8.60;1.67;;;1.40;99.90;;;;;;2622141;46;20085;31
2023/04/03 00:16:51;;;;;;;7.57;1.93;;;1.40;99.90;;;;;;2602627;54;20037;31
2023/04/03 00:19:27;;;;;;;6.50;2.10;;;1.40;99.90;;;;;;2622222;46;20270;31
2023/04/03 00:22:04;;;;;;;9.05;1.92;;;1.40;99.90;;;;;;2603356;54;20903;31
2023/04/03 00:24:42;;;;;;;5.93;2.20;;;1.40;99.90;;;;;;2622013;46;19961;31
2023/04/03 00:29:55;;;;;;;4.25;1.58;;;1.40;99.90;;;;;;2603844;54;20026;31
2023/04/03 00:32:32;;;;;;;4.53;1.58;;;1.40;99.90;;;;;;2603428;54;20038;31
2023/04/03 00:35:08;;;;;;;7.30;2.53;;;1.40;99.90;;;;;;2603328;54;20042;31
2023/04/03 00:37:45;;;;;;;4.95;2.03;;;1.40;99.90;;;;;;2622002;46;20865;31
2023/04/03 00:40:21;;;;;;;7.07;2.20;;;1.40;99.90;;;;;;2602557;54;20005;31
2023/04/03 00:42:58;;;;;;;6.23;1.97;;;1.40;99.90;;;;;;2603355;54;20066;31
2023/04/03 00:48:10;;;;;;;9.37;3.00;;;1.40;99.90;;;;;;2603330;54;20071;31
2023/04/03 00:50:47;;;;;;;8.40;1.95;;;1.40;99.90;;;;;;2603502;54;20238;31
2023/04/03 00:53:24;;;;;;;5.23;2.07;;;1.40;99.90;;;;;;2602588;54;20297;31
2023/04/03 00:56:02;;;;;;;9.48;1.92;;;1.30;99.90;;;;;;2603509;54;21098;31
2023/04/03 00:58:42;;;;;;;6.75;2.17;;;1.30;99.90;;;;;;2621426;46;22489;31
2023/04/03 01:01:19;;;;;;;8.30;2.70;;;1.30;99.90;;;;;;2603326;54;20027;31
2023/04/03 01:03:57;;;;;;;7.80;2.22;;;1.30;99.90;;;;;;2621754;46;20038;31
2023/04/03 01:06:33;;;;;;;4.72;1.58;;;1.30;99.90;;;;;;2603575;54;20026;31
2023/04/03 01:09:14;;;;;;;9.13;1.87;;;1.30;99.90;;;;;;2603308;54;20888;31
2023/04/03 01:11:50;;;;;;;5.55;2.05;;;1.30;99.90;;;;;;2603232;54;20118;31
2023/04/03 01:14:26;;;;;;;4.85;2.08;;;1.30;99.90;;;;;;2603245;54;20912;31
2023/04/03 01:17:01;;;;;;;;;;;1.20;99.90;;;;;;2603627;54;20031;31
2023/04/03 01:19:39;;;;;;;5.47;1.45;;;1.20;99.90;;;;;;2603331;54;19988;31
2023/04/03 01:22:18;;;;;;;6.60;1.77;;;1.20;99.90;;;;;;2603323;54;20038;31
2023/04/03 01:24:57;;;;;;;8.20;2.03;;;1.20;99.90;;;;;;2603146;54;20289;31
2023/04/03 01:27:32;;;;;;;11.68;2.10;;;1.20;99.90;;;;;;2603220;54;20916;31
2023/04/03 01:30:11;;;;;;;7.20;1.95;;;1.20;99.90;;;;;;2603168;54;20046;31
2023/04/03 01:32:45;;;;;;;6.15;1.65;;;1.10;99.90;;;;;;2603264;54;20057;31
2023/04/03 01:35:24;;;;;;;5.00;1.30;;;1.10;99.90;;;;;;2602841;54;20204;31
2023/04/03 01:37:59;;;;;;;8.25;2.20;;;1.00;99.90;;;;;;2603159;54;20108;31
2023/04/03 01:40:35;;;;;;;5.75;2.00;;;1.00;99.90;;;;;;2621856;46;20983;31
2023/04/03 01:43:10;;;;;;;14.70;5.18;;;1.00;99.90;;;;;;2603175;54;20779;31
2023/04/03 01:45:46;;;;;;;6.57;2.30;;;0.90;99.90;;;;;;2604402;46;20859;31
2023/04/03 01:48:23;;;;;;;5.55;1.83;;;0.90;99.90;;;;;;2603143;54;20238;31
2023/04/03 01:51:01;;;;;;;7.10;1.90;;;0.80;99.90;;;;;;2603157;54;20019;31
2023/04/03 01:53:36;;;;;;;7.20;2.50;;;0.80;99.90;;;;;;2621550;46;20037;31
2023/04/03 01:56:11;;;;;;;7.60;1.80;;;0.70;99.90;;;;;;2621922;46;20909;31
2023/04/03 01:58:47;;;;;;;6.30;1.70;;;0.70;99.90;;;;;;2603035;54;20026;31
2023/04/03 02:01:25;;;;;;;6.60;1.50;;;0.60;99.90;;;;;;2602568;54;20911;31
2023/04/03 02:04:00;;;;;;;8.52;2.08;;;0.60;99.90;;;;;;2621929;46;20899;31
2023/04/03 02:06:38;;;;;;;5.80;2.20;;;0.60;99.90;;;;;;2611825;46;20026;31
2023/04/03 02:09:14;;;;;;;7.80;1.65;;;0.60;99.90;;;;;;2603039;54;20749;31
2023/04/03 02:11:49;;;;;;;;;;;0.50;99.90;;;;;;2603647;54;20863;31
2023/04/03 02:14:27;;;;;;;7.70;1.90;;;0.50;99.90;;;;;;2602985;54;20797;31
2023/04/03 02:17:08;;;;;;;12.40;2.60;;;0.50;99.90;;;;;;2603302;54;20070;31
2023/04/03 02:19:51;;;;;;;7.15;2.47;;;0.50;99.90;;;;;;2603241;54;20051;31
2023/04/03 02:22:29;;;;;;;7.27;1.80;;;0.40;99.90;;;;;;2603133;54;20104;31
2023/04/03 02:25:07;;;;;;;8.00;2.10;;;0.40;99.90;;;;;;2621193;47;20794;31
2023/04/03 02:27:45;;;;;;;8.20;2.75;;;0.30;99.90;;;;;;2603285;54;20104;31
2023/04/03 02:30:21;;;;;;;7.27;2.33;;;0.30;99.90;;;;;;2603053;54;20160;31
2023/04/03 02:32:58;;;;;;;7.05;1.70;;;0.20;99.90;;;;;;2621354;47;20031;31
2023/04/03 02:35:36;;;;;;;8.27;2.33;;;0.20;99.90;;;;;;2621630;47;20763;31
2023/04/03 02:38:16;;;;;;;9.63;2.85;;;0.20;99.90;;;;;;2602820;54;20034;31
2023/04/03 02:40:51;;;;;;;7.32;2.00;;;0.20;99.90;;;;;;2602139;54;20022;31
2023/04/03 02:43:27;;;;;;;9.30;2.63;;;0.20;99.90;;;;;;2621127;47;20102;31
2023/04/03 02:46:05;;;;;;;8.77;2.33;;;0.10;99.90;;;;;;2602941;54;20106;31
2023/04/03 02:48:40;;;;;;;5.90;2.20;;;0.20;99.90;;;;;;2603068;54;20121;31
2023/04/03 02:51:23;;;;;;;7.63;2.05;;;0.20;99.90;;;;;;2621128;47;20045;31
2023/04/03 02:54:05;;;;;;;5.43;2.10;;;0.20;99.90;;;;;;2602895;54;20706;31
2023/04/03 02:56:44;;;;;;;5.95;2.03;;;0.30;99.90;;;;;;2602815;54;20034;31
2023/04/03 02:59:20;;;;;;;10.93;2.50;;;0.20;99.90;;;;;;2602875;54;20029;31
2023/04/03 03:01:56;;;;;;;6.77;2.00;;;0.20;99.90;;;;;;2602991;54;20068;31
2023/04/03 03:04:33;;;;;;;6.43;1.90;;;0.20;99.90;;;;;;2621304;47;20309;31
2023/04/03 03:07:09;;;;;;;7.00;2.33;;;0.10;99.90;;;;;;2602597;54;20766;31
2023/04/03 03:09:48;;;;;;;8.60;2.25;;;0.10;99.90;;;;;;2603233;54;20794;31
2023/04/03 03:12:24;;;;;;;9.40;2.20;;;0.00;99.90;;;;;;2702105;39;21566;31
2023/04/03 03:15:00;;;;;;;3.53;1.67;;;0.00;99.90;;;;;;2622296;46;20100;31
2023/04/03 03:17:36;;;;;;;10.70;3.73;;;-0.10;99.90;;;;;;2603590;54;20671;31
2023/04/03 03:20:15;;;;;;;6.97;2.67;;;-0.10;99.90;;;;;;2603625;54;20248;31
2023/04/03 03:22:51;;;;;;;7.55;2.30;;;-0.10;99.90;;;;;;2603685;54;20108;31
2023/04/03 03:25:29;;;;;;;7.05;2.85;;;-0.20;99.90;;;;;;2621721;46;20164;31
2023/04/03 03:28:05;;;;;;;7.57;2.05;;;-0.20;99.90;;;;;;2603786;54;20030;31
2023/04/03 03:30:40;;;;;;;;;;;-0.20;99.90;;;;;;2603910;54;20028;31
2023/04/03 03:33:17;;;;;;;11.98;4.35;;;-0.30;99.90;;;;;;2603576;54;20814;31
2023/04/03 03:35:52;;;;;;;;;;;-0.30;99.90;;;;;;2603831;54;20821;31
2023/04/03 03:38:27;;;;;;;9.23;2.40;;;-0.30;99.90;;;;;;2622325;46;19935;31
2023/04/03 03:41:05;;;;;;;6.97;2.40;;;-0.40;99.90;;;;;;2603528;54;20042;31
2023/04/03 03:43:42;;;;;;;8.03;2.53;;;-0.30;99.90;;;;;;2603629;54;20199;31
2023/04/03 03:46:19;;;;;;;12.15;4.45;;;-0.40;99.90;;;;;;2603614;54;20728;31
2023/04/03 03:48:55;;;;;;;13.60;3.05;;;-0.40;99.90;;;;;;2603816;54;20027;31
2023/04/03 03:51:31;;;;;;;13.00;2.72;;;-0.40;99.90;;;;;;2603508;54;20052;31
2023/04/03 03:54:07;;;;;;;9.98;2.42;;;-0.50;99.90;;;;;;2603448;54;20045;31
2023/04/03 03:56:46;;;;;;;8.35;2.20;;;-0.50;99.90;;;;;;2603636;54;20027;31
2023/04/03 03:59:22;;;;;;;7.68;2.20;;;-0.50;99.90;;;;;;2603679;54;20023;31
2023/04/03 04:01:58;;;;;;;10.80;3.05;;;-0.50;99.90;;;;;;2603590;54;20909;31
2023/04/03 04:04:35;;;;;;;9.05;2.67;;;-0.50;99.90;;;;;;2621836;46;20041;31
2023/04/03 04:07:11;;;;;;;9.77;2.70;;;-0.60;99.90;;;;;;2603783;54;19950;31
2023/04/03 04:09:46;;;;;;;;;;;-0.50;99.90;;;;;;2622376;46;20026;31
2023/04/03 04:12:26;;;;;;;9.15;2.25;;;-0.60;99.90;;;;;;2622220;46;19988;31
2023/04/03 04:15:01;;;;;;;5.70;2.65;;;-0.60;99.90;;;;;;2603587;54;20942;31
2023/04/03 04:17:37;;;;;;;11.40;2.72;;;-0.60;99.90;;;;;;2621755;46;20097;31
2023/04/03 04:20:18;;;;;;;6.57;2.70;;;-0.60;99.90;;;;;;2603171;54;20053;31
2023/04/03 04:22:56;;;;;;;10.73;2.70;;;-0.60;99.90;;;;;;2622024;46;20894;31
2023/04/03 04:25:32;;;;;;;6.53;1.85;;;-0.60;99.90;;;;;;2603621;54;20093;31
2023/04/03 04:28:11;;;;;;;4.97;1.58;;;-0.60;99.90;;;;;;2602786;54;20883;31
2023/04/03 04:30:49;;;;;;;8.18;2.17;;;-0.70;99.90;;;;;;2603283;54;19956;31
2023/04/03 04:33:26;;;;;;;7.40;2.35;;;-0.70;99.90;;;;;;2603576;54;20874;31
2023/04/03 04:36:07;;;;;;;6.55;2.70;;;-0.70;99.90;;;;;;2603495;54;20027;31
2023/04/03 04:38:44;;;;;;;10.20;2.22;;;-0.70;99.90;;;;;;2603581;54;20026;31
2023/04/03 04:41:22;;;;;;;8.53;1.83;;;-0.70;99.90;;;;;;2603382;54;20941;31
2023/04/03 04:44:01;;;;;;;6.93;2.30;;;-0.70;99.90;;;;;;2603405;54;20239;31
2023/04/03 04:46:37;;;;;;;5.10;2.75;;;-0.70;99.90;;;;;;2603297;54;19941;31
2023/04/03 04:49:15;;;;;;;14.80;2.50;;;-0.70;99.90;;;;;;2603318;54;20038;31
2023/04/03 04:51:51;;;;;;;8.77;2.53;;;-0.70;99.90;;;;;;2603236;54;20034;31
2023/04/03 04:54:32;;;;;;;9.85;2.40;;;-0.70;99.90;;;;;;2603482;54;20029;31
2023/04/03 04:57:08;;;;;;;10.55;2.30;;;-0.70;99.90;;;;;;2621746;46;20092;31
2023/04/03 04:59:47;;;;;;;8.85;2.65;;;-0.70;99.90;;;;;;2621842;46;20033;31
2023/04/03 05:02:22;;;;;;;8.00;3.70;;;-0.70;99.90;;;;;;2603335;54;20026;31
2023/04/03 05:05:00;;;;;;;11.15;3.60;;;-0.60;99.90;;;;;;2602395;54;20050;31
2023/04/03 05:07:41;;;;;;;7.60;3.85;;;-0.60;99.90;;;;;;2603509;54;20085;31
2023/04/03 05:10:18;;;;;;;9.03;3.60;;;-0.50;99.90;;;;;;2603298;54;20483;31
2023/04/03 05:12:55;;;;;;;12.85;4.45;;;-0.60;99.90;;;;;;2602522;54;20023;31
2023/04/03 05:15:34;;;;;;;11.82;5.00;;;-0.50;99.90;;;;;;2603448;54;20085;31
2023/04/03 05:18:14;;;;;;;20.80;4.28;;;-0.50;99.90;;;;;;2603348;54;20034;31
2023/04/03 05:20:51;;;;;;;11.70;4.30;;;-0.50;99.90;;;;;;2603303;54;20900;31
2023/04/03 05:23:29;;;;;;;17.63;3.70;;;-0.40;99.90;;;;;;2621549;46;20060;31
2023/04/03 05:26:07;;;;;;;9.00;1.93;;;-0.30;99.90;;;;;;2621836;46;20046;31
2023/04/03 05:28:43;;;;;;;12.10;2.43;;;-0.30;99.90;;;;;;2603192;54;21235;31
2023/04/03 05:31:23;;;;;;;9.77;1.98;;;-0.20;99.90;;;;;;2603135;54;21169;31
2023/04/03 05:34:03;;;;;;;5.15;1.90;;;-0.20;99.90;;;;;;2603308;54;20053;31
2023/04/03 05:36:42;;;;;;;8.95;2.28;;;-0.10;99.90;;;;;;2603130;54;20776;31
2023/04/03 05:39:22;;;;;;;9.57;3.65;;;0.00;99.90;;;;;;2603168;54;20147;31
2023/04/03 05:42:00;;;;;;;10.27;2.20;;;0.00;99.90;;;;;;2603313;54;20029;31
2023/04/03 05:44:36;;;;;;;6.65;1.95;;;0.10;99.90;;;;;;2621710;46;20231;31
2023/04/03 05:47:15;;;;;;;5.80;1.83;;;0.30;99.90;;;;;;2603264;54;20894;31
2023/04/03 05:49:51;;;;;;;9.80;2.97;;;0.40;99.90;;;;;;2602588;54;20050;31
2023/04/03 05:52:30;;;;;;;10.67;2.07;;;0.80;99.90;;;;;;2603049;54;20026;31
2023/04/03 05:55:09;;;;;;;9.70;1.55;;;1.10;99.90;;;;;;2603141;54;20238;31
2023/04/03 05:57:45;;;;;;;8.40;1.83;;;1.50;99.90;;;;;;2603246;54;20806;31
2023/04/03 06:00:23;;;;;;;5.80;2.10;;;2.00;99.90;;;;;;2603072;54;20781;31
2023/04/03 06:03:10;;;;;;;7.10;2.95;;;2.40;99.90;;;;;;2603132;54;20878;31
2023/04/03 06:05:46;;;;;;;10.95;3.00;;;2.60;99.90;;;;;;2602928;54;20030;31
2023/04/03 06:08:24;;;;;;;9.85;2.40;;;3.00;99.90;;;;;;2603309;54;20049;31
2023/04/03 06:11:16;;;;;;;6.55;2.35;;;3.30;99.90;;;;;;2603078;54;20097;31
2023/04/03 06:13:53;;;;;;;12.50;4.32;;;3.80;99.90;;;;;;2603203;54;20053;31
2023/04/03 06:16:29;;;;;;;8.00;2.92;;;4.10;99.90;;;;;;2603065;54;20033;31
2023/04/03 06:19:09;;;;;;;6.90;2.20;;;4.30;99.90;;;;;;2602934;54;20934;31
2023/04/03 06:21:49;;;;;;;4.95;2.08;;;4.50;99.90;;;;;;2603043;54;20022;31
2023/04/03 06:24:25;;;;;;;11.37;2.00;;;4.50;99.90;;;;;;2621515;47;20863;31
2023/04/03 06:27:04;;;;;;;8.10;2.35;;;4.60;99.90;;;;;;2613193;47;20046;31
2023/04/03 06:29:40;;;;;;;7.38;2.28;;;4.70;99.90;;;;;;2602870;54;20076;31
2023/04/03 06:32:16;;;;;;;7.30;2.10;;;4.90;99.90;;;;;;2603048;54;20086;31
2023/04/03 06:34:57;;;;;;;7.20;1.83;;;5.00;99.90;;;;;;2603195;54;20053;31
2023/04/03 06:37:35;;;;;;;5.40;1.80;;;5.40;99.90;;;;;;2602935;54;20023;31
2023/04/03 06:40:14;;;;;;;10.45;3.25;;;5.40;99.90;;;;;;2602773;54;20834;31
2023/04/03 06:42:49;;;;;;;5.90;2.63;;;5.70;99.90;;;;;;2621401;47;20883;31
2023/04/03 06:45:27;;;;;;;6.63;2.27;;;5.70;99.90;;;;;;2603851;54;20022;31
2023/04/03 06:48:03;;;;;;;8.45;3.00;;;5.90;99.90;;;;;;2603869;54;20022;31
2023/04/03 06:50:41;;;;;;;;;;;6.00;99.90;;;;;;2604186;54;20034;31
2023/04/03 06:53:21;;;;;;;4.07;2.17;;;6.00;99.90;;;;;;2603623;54;19935;31
2023/04/03 06:55:58;;;;;;;7.07;2.75;;;6.40;99.90;;;;;;2603655;54;20910;31
2023/04/03 06:58:34;;;;;;;7.35;2.65;;;6.40;99.90;;;;;;2603607;54;20030;31
2023/04/03 07:01:11;;;;;;;9.15;2.65;;;6.80;99.90;;;;;;2603675;54;20029;31
2023/04/03 07:03:48;;;;;;;9.38;2.70;;;6.80;99.90;;;;;;2603602;54;20032;31
2023/04/03 07:06:30;;;;;;;6.32;2.50;;;6.80;99.90;;;;;;2603661;54;20748;31
2023/04/03 07:09:10;;;;;;;5.80;2.28;;;6.70;99.90;;;;;;2603695;54;20035;31
2023/04/03 07:11:46;;;;;;;8.02;2.55;;;6.50;99.90;;;;;;2603909;54;20032;31
2023/04/03 07:14:23;;;;;;;8.25;2.58;;;6.50;99.90;;;;;;2603527;54;20026;31
2023/04/03 07:17:01;;;;;;;7.93;2.23;;;6.20;99.90;;;;;;2603649;54;20794;31
2023/04/03 07:19:35;;;;;;;4.38;1.85;;;6.30;99.90;;;;;;2622100;46;20027;31
2023/04/03 07:22:16;;;;;;;6.78;2.35;;;6.50;99.90;;;;;;2622083;46;20031;31
2023/04/03 07:24:53;;;;;;;13.77;3.50;;;6.40;99.90;;;;;;2603649;54;20030;31
2023/04/03 07:27:29;;;;;;;5.60;1.85;;;6.30;99.90;;;;;;2613745;46;20031;31
2023/04/03 07:30:14;;;;;;;8.88;2.92;;;6.40;99.90;;;;;;2622205;46;20057;31
2023/04/03 07:32:52;;;;;;;7.80;3.20;;;6.40;99.90;;;;;;2622161;46;20057;31
2023/04/03 07:35:26;;;;;;;7.05;2.30;;;6.60;99.90;;;;;;2603666;54;20923;31
2023/04/03 07:38:06;;;;;;;4.88;2.03;;;6.90;99.90;;;;;;2603720;54;20052;31
2023/04/03 07:40:42;;;;;;;6.20;1.77;;;7.10;99.90;;;;;;2603640;54;20029;31
2023/04/03 07:43:21;;;;;;;5.10;1.80;;;7.50;99.90;;;;;;2603584;54;20030;31
2023/04/03 07:46:00;;;;;;;5.78;1.70;;;7.40;99.90;;;;;;2603773;54;20030;31
2023/04/03 07:48:36;;;;;;;3.85;1.75;;;7.50;99.90;;;;;;2622013;46;20880;31
2023/04/03 07:51:16;;;;;;;4.25;1.70;;;7.30;99.90;;;;;;2603517;54;20916;31
2023/04/03 07:53:50;;;;;;;6.55;2.00;;;7.50;99.90;;;;;;2603623;54;20103;31
2023/04/03 07:56:29;;;;;;;7.55;2.80;;;7.50;99.90;;;;;;2622246;46;20032;31
2023/04/03 07:59:06;;;;;;;7.88;2.55;;;7.80;99.90;;;;;;2603790;54;20030;31
2023/04/03 08:01:44;;;;;;;6.95;2.30;;;8.10;99.90;;;;;;2622041;46;20026;31
2023/04/03 08:04:20;;;;;;;6.77;1.80;;;8.30;99.90;;;;;;2621960;46;20880;31
2023/04/03 08:06:58;;;;;;;5.25;1.85;;;8.30;99.90;;;;;;2622328;46;20053;31
2023/04/03 08:09:34;;;;;;;2.55;1.40;;;8.20;99.90;;;;;;2622190;46;20023;31
2023/04/03 08:12:17;;;;;;;6.68;2.10;;;8.20;99.90;;;;;;2621502;46;20033;31
2023/04/03 08:14:55;;;;;;;7.63;2.42;;;8.40;99.90;;;;;;2603619;54;20031;31
2023/04/03 08:17:33;;;;;;;5.63;1.52;;;8.60;99.90;;;;;;2622037;46;20116;31
2023/04/03 08:20:13;;;;;;;5.85;2.00;;;8.60;99.90;;;;;;2622127;46;20034;31
2023/04/03 08:22:48;;;;;;;7.20;2.77;;;9.00;99.90;;;;;;2621749;46;20918;31
2023/04/03 08:25:25;;;;;;;4.93;2.03;;;9.10;99.90;;;;;;2622030;46;20031;31
2023/04/03 08:28:05;;;;;;;4.72;1.35;;;9.50;99.90;;;;;;2603653;54;20022;31
2023/04/03 08:30:43;;;;;;;5.07;1.88;;;9.60;99.90;;;;;;2603597;54;20030;31
2023/04/03 08:33:27;;;;;;;6.45;1.20;;;9.50;99.90;;;;;;2701995;39;21094;31
2023/04/03 08:36:01;;;;;;;4.95;1.65;;;9.30;99.90;;;;;;2603536;54;20030;31
2023/04/03 08:38:39;;;;;;;3.70;1.30;;;9.20;99.90;;;;;;2622226;46;20031;31
2023/04/03 08:41:18;;;;;;;4.50;1.90;;;9.10;99.90;;;;;;2720994;39;21022;31
2023/04/03 08:44:01;;;;;;;4.40;1.47;;;9.10;99.90;;;;;;2603840;54;20030;31
2023/04/03 08:46:42;;;;;;;5.63;1.35;;;8.70;99.90;;;;;;2622075;46;20042;31
2023/04/03 08:49:22;;;;;;;6.57;1.50;;;8.30;99.90;;;;;;2603732;54;20872;31
2023/04/03 08:51:58;;;;;;;4.00;1.58;;;8.20;99.90;;;;;;2603271;54;20023;31
2023/04/03 08:54:34;;;;;;;3.90;1.30;;;8.10;99.90;;;;;;2603321;54;19960;31
2023/04/03 08:57:12;;;;;;;3.53;1.40;;;8.00;99.90;;;;;;2602845;54;20031;31
2023/04/03 08:59:51;;;;;;;3.35;1.23;;;7.90;99.90;;;;;;2602751;54;20040;31
2023/04/03 09:02:52;;;;;;;6.40;1.80;;;7.50;99.90;;;;;;2603471;54;20037;31
2023/04/03 09:05:35;;;;;;;3.53;1.30;;;7.40;99.90;;;;;;2602564;54;20744;31
2023/04/03 09:08:17;;;;;;;7.38;2.47;;;7.10;99.90;;;;;;2621837;46;20030;31
2023/04/03 09:10:53;;;;;;;9.55;3.80;;;6.90;99.90;;;;;;2603392;54;20026;31
2023/04/03 09:13:30;;;;;;;5.50;1.90;;;6.90;99.90;;;;;;2621677;46;20037;31
2023/04/03 09:16:14;;;;;;;3.13;1.10;;;7.00;99.90;;;;;;2602484;54;20831;31
2023/04/03 09:18:52;;;;;;;3.95;1.35;;;7.30;99.90;;;;;;2603297;54;20960;31
2023/04/03 09:21:31;;;;;;;2.38;0.73;;;7.70;99.90;;;;;;2621725;46;20037;31
2023/04/03 09:24:07;;;;;;;2.75;0.80;;;7.80;99.90;;;;;;2621861;46;19941;31
2023/04/03 09:26:44;;;;;;;3.38;1.40;;;7.80;99.90;;;;;;2603365;54;20052;31
2023/04/03 09:29:22;;;;;;;3.90;1.08;;;7.70;99.90;;;;;;2603501;54;20033;31
2023/04/03 09:32:01;;;;;;;5.60;1.48;;;7.50;99.90;;;;;;2603399;54;20076;31
2023/04/03 09:34:41;;;;;;;4.25;1.60;;;7.40;99.90;;;;;;2610950;46;20034;31
2023/04/03 09:37:18;;;;;;;3.47;1.23;;;7.40;99.90;;;;;;2603457;54;20027;31
2023/04/03 09:39:55;;;;;;;3.97;1.30;;;7.50;99.90;;;;;;2602370;54;20085;31
2023/04/03 09:42:32;;;;;;;6.85;1.85;;;7.10;99.90;;;;;;2603041;54;20030;31
2023/04/03 09:45:27;;;;;;;3.78;1.27;;;6.90;99.90;;;;;;2621769;46;20075;31
2023/04/03 09:48:17;;;;;;;5.22;1.40;;;6.60;99.90;;;;;;2603084;54;20045;31
2023/04/03 09:51:08;;;;;;;3.92;1.30;;;6.60;99.90;;;;;;2603358;54;20164;31
2023/04/03 09:53:46;;;;;;;6.53;2.42;;;6.70;99.90;;;;;;2621799;46;20876;31
2023/04/03 09:56:21;;;;;;;6.73;2.20;;;6.90;99.90;;;;;;2621367;46;20963;31
2023/04/03 09:59:11;;;;;;;8.10;2.20;;;7.20;99.90;;;;;;2621612;46;20031;31
2023/04/03 10:01:47;;;;;;;5.07;2.03;;;7.20;99.70;;;;;;2602896;54;20156;31
2023/04/03 10:04:26;;;;;;;5.03;1.13;;;7.20;99.90;;;;;;2602973;54;20027;31
2023/04/03 10:07:02;;;;;;;4.35;1.92;;;7.30;99.90;;;;;;2603226;54;20089;31
2023/04/03 10:09:42;;;;;;;3.70;1.20;;;7.50;99.90;;;;;;2621981;46;20039;31
2023/04/03 10:12:18;;;;;;;5.40;1.60;;;7.30;99.90;;;;;;2621727;46;20767;31
2023/04/03 10:14:57;;;;;;;20.70;10.40;;;7.30;99.90;;;;;;2603077;54;20087;31
2023/04/03 10:17:40;;;;;;;12.90;5.72;;;7.60;99.90;;;;;;2602373;54;20030;31
2023/04/03 10:20:29;;;;;;;10.32;3.78;;;7.60;99.90;;;;;;2603609;54;20049;31
2023/04/03 10:23:19;;;;;;;8.10;2.35;;;7.60;99.90;;;;;;2603860;54;20034;31
2023/04/03 10:26:04;;;;;;;4.47;1.80;;;7.30;99.90;;;;;;2603998;54;20034;31
2023/04/03 10:28:43;;;;;;;6.25;2.05;;;7.20;99.90;;;;;;2603744;54;21118;31
2023/04/03 10:31:20;;;;;;;5.63;2.78;;;7.10;99.90;;;;;;2603873;54;20038;31
2023/04/03 10:33:59;;;;;;;4.23;1.83;;;7.40;99.90;;;;;;2603993;54;20855;31
2023/04/03 10:36:41;;;;;;;4.60;1.98;;;7.60;99.90;;;;;;2603814;54;20085;31
2023/04/03 10:39:23;;;;;;;3.53;1.55;;;7.80;99.90;;;;;;2604184;54;20031;31
2023/04/03 10:42:02;;;;;;;3.65;1.70;;;8.00;99.90;;;;;;2621635;46;20022;31
2023/04/03 10:45:03;;;;;;;5.38;1.50;;;8.10;99.70;;;;;;2603922;54;20060;31
2023/04/03 10:47:42;;;;;;;2.65;1.02;;;7.90;98.80;;;;;;2622639;46;20026;31
2023/04/03 10:50:29;;;;;;;5.40;1.48;;;7.60;97.50;;;;;;2622320;46;20033;31
2023/04/03 10:53:11;;;;;;;5.45;1.70;;;7.50;98.20;;;;;;2603817;54;20078;31
2023/04/03 10:55:48;;;;;;;3.55;1.50;;;7.60;99.90;;;;;;2602938;54;20935;31
2023/04/03 10:58:26;;;;;;;4.18;1.70;;;7.30;99.90;;;;;;2603847;54;20863;31
2023/04/03 11:01:04;;;;;;;4.25;1.40;;;7.00;99.90;;;;;;2622274;46;20027;31
2023/04/03 11:06:17;;;;;;;5.47;2.33;;;6.60;99.90;;;;;;2603941;54;20033;31
2023/04/03 11:09:06;;;;;;;2.77;1.43;;;6.40;99.70;;;;;;2603689;54;20037;31
2023/04/03 11:11:43;;;;;;;4.18;1.85;;;6.60;99.90;;;;;;2603686;54;20124;31
2023/04/03 11:14:21;;;;;;;4.85;1.40;;;6.70;99.90;;;;;;2603677;54;20875;31
2023/04/03 11:17:03;;;;;;;4.00;2.05;;;6.60;99.90;;;;;;2603668;54;20034;31
2023/04/03 11:19:42;;;;;;;6.55;1.98;;;6.50;99.70;;;;;;2603696;54;20042;31
2023/04/03 11:22:22;;;;;;;5.77;2.83;;;6.50;99.40;;;;;;2603504;54;20479;31
2023/04/03 11:25:05;;;;;;;3.60;1.45;;;6.60;99.90;;;;;;2602885;54;20308;31
2023/04/03 11:27:43;;;;;;;4.10;1.20;;;6.80;99.90;;;;;;2602736;54;20882;31
2023/04/03 11:30:23;;;;;;;4.75;1.10;;;7.00;99.90;;;;;;2602358;54;20027;31
2023/04/03 11:33:16;;;;;;;3.03;1.10;;;6.80;97.20;;;;;;2602936;54;20035;31
2023/04/03 11:35:55;;;;;;;4.25;2.25;;;6.60;96.70;;;;;;2603551;54;20022;31
2023/04/03 11:38:34;;;;;;;4.63;1.27;;;6.70;97.20;;;;;;2603580;54;20091;31
2023/04/03 11:41:15;;;;;;;4.18;1.88;;;6.80;97.90;;;;;;2622359;46;20030;31
2023/04/03 11:43:58;;;;;;;3.70;1.38;;;7.00;97.50;;;;;;2602658;54;20871;31
2023/04/03 11:46:51;;;;;;;3.38;1.08;;;7.00;98.20;;;;;;2602851;54;20026;31
2023/04/03 11:50:02;;;;;;;2.97;1.00;;;7.00;98.60;;;;;;2603317;54;20046;31
2023/04/03 11:52:55;;;;;;;;;;;6.90;98.50;;;;;;2603743;54;21077;31
2023/04/03 11:55:57;;;;;;;6.18;1.13;;;6.80;97.90;;;;;;2603612;54;19953;31
2023/04/03 11:58:37;;;;;;;4.15;1.50;;;6.80;98.10;;;;;;2603526;54;20022;31
2023/04/03 12:01:14;;;;;;;4.05;1.70;;;6.90;98.50;;;;;;2602640;54;20834;31
2023/04/03 12:04:01;;;;;;;4.13;2.10;;;7.10;98.30;;;;;;2602979;54;20030;31
2023/04/03 12:07:14;;;;;;;5.28;1.65;;;7.20;98.30;;;;;;2701329;39;20548;31
2023/04/03 12:10:01;;;;;;;3.83;1.50;;;7.00;96.60;;;;;;2603804;54;20046;31
2023/04/03 12:12:41;;;;;;;3.33;1.40;;;6.70;96.50;;;;;;2603572;54;19934;31
2023/04/03 12:15:26;;;;;;;3.72;1.20;;;6.70;96.10;;;;;;2621740;46;20027;31
2023/04/03 12:18:31;;;;;;;3.55;1.63;;;6.70;95.80;;;;;;2603536;54;20077;31
2023/04/03 12:21:13;;;;;;;2.70;1.50;;;6.80;96.60;;;;;;2603533;54;20034;31
2023/04/03 12:24:04;;;;;;;5.20;1.40;;;6.80;99.90;;;;;;2603404;54;20041;31
2023/04/03 12:26:42;;;;;;;4.50;1.40;;;6.60;99.80;;;;;;2603577;54;20882;31
2023/04/03 12:29:27;;;;;;;3.00;1.20;;;6.50;99.50;;;;;;2603390;54;20034;31
2023/04/03 12:32:03;;;;;;;3.85;1.60;;;6.50;99.90;;;;;;2621676;46;20175;31
2023/04/03 12:34:49;;;;;;;5.80;2.60;;;6.50;99.90;;;;;;2603397;54;20081;31
2023/04/03 12:37:33;;;;;;;3.50;1.50;;;6.40;98.10;;;;;;2603596;54;20912;31
2023/04/03 12:40:13;;;;;;;4.22;2.13;;;6.40;98.30;;;;;;2603496;54;20791;31
2023/04/03 12:43:13;;;;;;;3.28;1.55;;;6.50;97.90;;;;;;2603232;54;20026;31
2023/04/03 12:45:50;;;;;;;5.00;1.50;;;6.60;99.80;;;;;;2603230;54;20026;31
2023/04/03 12:48:28;;;;;;;5.03;1.50;;;6.60;99.30;;;;;;2603401;54;20155;31
2023/04/03 12:51:06;;;;;;;4.95;1.67;;;6.40;98.20;;;;;;2603430;54;20910;31
2023/04/03 12:53:42;;;;;;;6.95;3.03;;;6.30;98.40;;;;;;2602704;54;20023;31
2023/04/03 12:56:28;;;;;;;2.90;1.40;;;6.20;97.40;;;;;;2603380;54;20732;31
2023/04/03 12:59:19;;;;;;;3.47;1.77;;;6.30;99.20;;;;;;2603203;54;20027;31
2023/04/03 13:01:58;;;;;;;4.45;2.00;;;6.40;97.20;;;;;;2603285;54;20081;31
2023/04/03 13:04:34;;;;;;;8.45;3.20;;;6.50;97.20;;;;;;2603368;54;20895;31
2023/04/03 13:07:22;;;;;;;4.05;1.75;;;6.60;97.00;;;;;;2720008;39;21587;31
2023/04/03 13:10:06;;;;;;;3.15;1.20;;;6.60;96.70;;;;;;2603285;54;20900;31
2023/04/03 13:12:50;;;;;;;2.58;1.00;;;6.50;96.90;;;;;;2603006;54;20880;31
2023/04/03 13:15:26;;;;;;;4.63;1.60;;;6.40;97.80;;;;;;2603335;54;20811;31
2023/04/03 13:18:04;;;;;;;4.78;1.50;;;6.30;98.10;;;;;;2602414;54;20034;31
2023/04/03 13:20:42;;;;;;;4.18;1.20;;;6.20;99.00;;;;;;2621869;46;20031;31
2023/04/03 13:23:17;;;;;;;2.90;1.55;;;6.20;98.80;;;;;;2603335;54;20022;31
2023/04/03 13:26:00;;;;;;;4.10;1.60;;;6.30;97.40;;;;;;2621532;46;20919;31
2023/04/03 13:28:42;;;;;;;7.28;2.67;;;6.20;96.40;;;;;;2603404;54;20027;31
2023/04/03 13:31:24;;;;;;;4.85;1.70;;;6.30;96.50;;;;;;2602647;54;22425;31
2023/04/03 13:34:05;;;;;;;5.53;1.83;;;6.30;97.70;;;;;;2621495;46;20101;31
2023/04/03 13:36:43;;;;;;;5.22;1.98;;;6.30;96.60;;;;;;2603159;54;20023;31
2023/04/03 13:39:28;;;;;;;3.80;1.87;;;6.20;98.20;;;;;;2621740;46;20052;31
2023/04/03 13:42:20;;;;;;;4.35;1.35;;;6.30;98.80;;;;;;2603250;54;20258;31
2023/04/03 13:45:13;;;;;;;4.40;0.90;;;6.30;97.30;;;;;;2603174;54;20022;31
2023/04/03 13:47:49;;;;;;;5.70;1.65;;;6.40;98.00;;;;;;2603116;54;20022;31
2023/04/03 13:50:25;;;;;;;3.53;1.40;;;6.50;97.90;;;;;;2603022;54;20899;31
2023/04/03 13:53:04;;;;;;;3.33;1.25;;;6.60;96.60;;;;;;2603323;54;20929;31
2023/04/03 13:55:55;;;;;;;2.63;1.20;;;6.60;96.10;;;;;;2602563;54;20880;31
2023/04/03 13:58:37;;;;;;;2.85;1.55;;;6.60;96.00;;;;;;2603132;54;20057;31
2023/04/03 14:01:13;;;;;;;4.65;1.58;;;6.60;95.40;;;;;;2606051;46;20034;31
2023/04/03 14:04:00;;;;;;;3.03;1.58;;;6.60;95.80;;;;;;2603387;54;20057;31
2023/04/03 14:06:39;;;;;;;6.25;2.10;;;6.60;95.50;;;;;;2603084;54;20107;31
2023/04/03 14:09:15;;;;;;;4.70;1.60;;;6.60;95.80;;;;;;2602884;54;20085;31
2023/04/03 14:11:52;;;;;;;8.90;2.60;;;6.50;95.30;;;;;;2603175;54;20092;31
2023/04/03 14:14:31;;;;;;;5.80;1.70;;;6.40;95.10;;;;;;2621655;46;20026;31
2023/04/03 14:17:22;;;;;;;2.47;1.38;;;6.30;95.10;;;;;;2603104;54;20023;31
2023/04/03 14:20:13;;;;;;;4.85;2.20;;;6.20;94.90;;;;;;2602888;54;20943;31